sensor_id;sensor_type;location;lat;lon;timestamp;P1;durP1;ratioP1;P2;durP2;ratioP2
55758;SDS011;41678;52.126;20.664;2022-10-31T00:02:26;55.75;;;28.08;;
55758;SDS011;41678;52.126;20.664;2022-10-31T00:07:45;62.25;;;27.38;;
55758;SDS011;41678;52.126;20.664;2022-10-31T00:13:05;48.90;;;25.75;;
55758;SDS011;41678;52.126;20.664;2022-10-31T00:18:26;52.35;;;25.58;;
55758;SDS011;41678;52.126;20.664;2022-10-31T00:23:45;50.10;;;24.40;;
55758;SDS011;41678;52.126;20.664;2022-10-31T00:29:05;53.53;;;23.42;;
55758;SDS011;41678;52.126;20.664;2022-10-31T00:34:25;45.50;;;24.50;;
55758;SDS011;41678;52.126;20.664;2022-10-31T00:39:45;56.53;;;23.83;;
55758;SDS011;41678;52.126;20.664;2022-10-31T00:45:05;42.00;;;21.23;;
55758;SDS011;41678;52.126;20.664;2022-10-31T00:50:24;48.58;;;22.52;;
55758;SDS011;41678;52.126;20.664;2022-10-31T00:55:44;45.20;;;22.75;;
55758;SDS011;41678;52.126;20.664;2022-10-31T01:01:04;46.03;;;21.67;;
55758;SDS011;41678;52.126;20.664;2022-10-31T01:06:24;48.90;;;22.13;;
55758;SDS011;41678;52.126;20.664;2022-10-31T01:11:44;49.38;;;23.13;;
55758;SDS011;41678;52.126;20.664;2022-10-31T01:17:04;54.05;;;21.80;;
55758;SDS011;41678;52.126;20.664;2022-10-31T01:22:23;47.83;;;21.38;;
55758;SDS011;41678;52.126;20.664;2022-10-31T01:27:43;45.85;;;21.67;;
55758;SDS011;41678;52.126;20.664;2022-10-31T01:33:04;38.03;;;19.27;;
55758;SDS011;41678;52.126;20.664;2022-10-31T01:38:23;40.35;;;20.10;;
55758;SDS011;41678;52.126;20.664;2022-10-31T01:43:51;42.30;;;20.75;;
55758;SDS011;41678;52.126;20.664;2022-10-31T01:49:18;41.45;;;19.48;;
55758;SDS011;41678;52.126;20.664;2022-10-31T01:54:46;44.00;;;21.27;;
55758;SDS011;41678;52.126;20.664;2022-10-31T02:00:12;43.78;;;19.55;;
55758;SDS011;41678;52.126;20.664;2022-10-31T02:05:33;42.50;;;22.27;;
55758;SDS011;41678;52.126;20.664;2022-10-31T02:10:54;43.85;;;20.13;;
55758;SDS011;41678;52.126;20.664;2022-10-31T02:16:16;45.25;;;20.55;;
55758;SDS011;41678;52.126;20.664;2022-10-31T02:27:37;31.05;;;17.60;;
55758;SDS011;41678;52.126;20.664;2022-10-31T02:33:07;38.42;;;17.85;;
55758;SDS011;41678;52.126;20.664;2022-10-31T02:38:45;33.65;;;16.15;;
55758;SDS011;41678;52.126;20.664;2022-10-31T02:44:22;35.38;;;18.15;;
55758;SDS011;41678;52.126;20.664;2022-10-31T02:49:59;36.00;;;17.05;;
55758;SDS011;41678;52.126;20.664;2022-10-31T03:06:10;25.88;;;13.90;;
55758;SDS011;41678;52.126;20.664;2022-10-31T03:11:43;34.85;;;15.55;;
55758;SDS011;41678;52.126;20.664;2022-10-31T03:17:31;37.63;;;15.57;;
55758;SDS011;41678;52.126;20.664;2022-10-31T03:22:55;32.33;;;16.10;;
55758;SDS011;41678;52.126;20.664;2022-10-31T03:28:16;33.22;;;15.63;;
55758;SDS011;41678;52.126;20.664;2022-10-31T03:33:41;39.88;;;15.18;;
55758;SDS011;41678;52.126;20.664;2022-10-31T03:39:04;32.30;;;15.70;;
55758;SDS011;41678;52.126;20.664;2022-10-31T03:44:26;28.55;;;13.40;;
55758;SDS011;41678;52.126;20.664;2022-10-31T03:49:53;33.83;;;14.52;;
55758;SDS011;41678;52.126;20.664;2022-10-31T03:55:17;27.63;;;15.07;;
55758;SDS011;41678;52.126;20.664;2022-10-31T04:00:52;33.90;;;15.27;;
55758;SDS011;41678;52.126;20.664;2022-10-31T04:06:15;28.80;;;14.27;;
55758;SDS011;41678;52.126;20.664;2022-10-31T04:11:40;34.00;;;14.93;;
55758;SDS011;41678;52.126;20.664;2022-10-31T04:22:42;31.80;;;14.05;;
55758;SDS011;41678;52.126;20.664;2022-10-31T04:28:02;31.88;;;15.40;;
55758;SDS011;41678;52.126;20.664;2022-10-31T04:33:22;30.52;;;14.32;;
55758;SDS011;41678;52.126;20.664;2022-10-31T04:38:41;35.80;;;15.70;;
55758;SDS011;41678;52.126;20.664;2022-10-31T04:44:13;25.73;;;12.88;;
55758;SDS011;41678;52.126;20.664;2022-10-31T04:49:33;29.05;;;12.93;;
55758;SDS011;41678;52.126;20.664;2022-10-31T04:54:52;29.00;;;14.05;;
55758;SDS011;41678;52.126;20.664;2022-10-31T05:00:32;28.55;;;13.27;;
55758;SDS011;41678;52.126;20.664;2022-10-31T05:05:51;28.95;;;13.57;;
55758;SDS011;41678;52.126;20.664;2022-10-31T05:11:11;24.90;;;13.60;;
55758;SDS011;41678;52.126;20.664;2022-10-31T05:16:31;24.02;;;11.82;;
55758;SDS011;41678;52.126;20.664;2022-10-31T05:22:23;24.05;;;11.20;;
55758;SDS011;41678;52.126;20.664;2022-10-31T05:27:43;23.92;;;12.73;;
55758;SDS011;41678;52.126;20.664;2022-10-31T05:33:07;28.55;;;13.30;;
55758;SDS011;41678;52.126;20.664;2022-10-31T05:38:45;26.27;;;13.23;;
55758;SDS011;41678;52.126;20.664;2022-10-31T05:44:25;26.98;;;13.43;;
55758;SDS011;41678;52.126;20.664;2022-10-31T05:50:11;24.67;;;12.18;;
55758;SDS011;41678;52.126;20.664;2022-10-31T05:55:42;26.30;;;13.65;;
55758;SDS011;41678;52.126;20.664;2022-10-31T06:01:07;28.77;;;12.13;;
55758;SDS011;41678;52.126;20.664;2022-10-31T06:06:27;27.75;;;13.73;;
55758;SDS011;41678;52.126;20.664;2022-10-31T06:11:46;25.00;;;11.90;;
55758;SDS011;41678;52.126;20.664;2022-10-31T06:17:18;28.92;;;12.82;;
55758;SDS011;41678;52.126;20.664;2022-10-31T06:22:38;36.33;;;13.40;;
55758;SDS011;41678;52.126;20.664;2022-10-31T06:27:58;27.42;;;13.88;;
55758;SDS011;41678;52.126;20.664;2022-10-31T06:33:26;26.20;;;13.05;;
55758;SDS011;41678;52.126;20.664;2022-10-31T06:38:50;22.65;;;11.05;;
55758;SDS011;41678;52.126;20.664;2022-10-31T06:44:13;32.72;;;13.00;;
55758;SDS011;41678;52.126;20.664;2022-10-31T06:49:48;24.63;;;11.27;;
55758;SDS011;41678;52.126;20.664;2022-10-31T06:55:10;26.00;;;11.98;;
55758;SDS011;41678;52.126;20.664;2022-10-31T07:00:29;22.33;;;11.02;;
55758;SDS011;41678;52.126;20.664;2022-10-31T07:05:56;21.80;;;10.77;;
55758;SDS011;41678;52.126;20.664;2022-10-31T07:11:16;29.60;;;10.75;;
55758;SDS011;41678;52.126;20.664;2022-10-31T07:16:36;46.78;;;12.70;;
55758;SDS011;41678;52.126;20.664;2022-10-31T07:21:57;31.23;;;11.67;;
55758;SDS011;41678;52.126;20.664;2022-10-31T07:27:20;33.92;;;12.35;;
55758;SDS011;41678;52.126;20.664;2022-10-31T07:32:41;25.98;;;10.85;;
55758;SDS011;41678;52.126;20.664;2022-10-31T07:38:12;32.42;;;11.43;;
55758;SDS011;41678;52.126;20.664;2022-10-31T07:43:33;32.70;;;12.07;;
55758;SDS011;41678;52.126;20.664;2022-10-31T07:49:10;31.67;;;12.82;;
55758;SDS011;41678;52.126;20.664;2022-10-31T07:54:49;28.92;;;12.85;;
55758;SDS011;41678;52.126;20.664;2022-10-31T08:00:15;34.30;;;12.30;;
55758;SDS011;41678;52.126;20.664;2022-10-31T08:05:35;28.13;;;11.65;;
55758;SDS011;41678;52.126;20.664;2022-10-31T08:11:31;52.03;;;15.35;;
55758;SDS011;41678;52.126;20.664;2022-10-31T08:16:52;50.20;;;16.95;;
55758;SDS011;41678;52.126;20.664;2022-10-31T08:22:12;50.30;;;17.30;;
55758;SDS011;41678;52.126;20.664;2022-10-31T08:27:32;59.35;;;18.70;;
55758;SDS011;41678;52.126;20.664;2022-10-31T08:33:04;53.05;;;19.45;;
55758;SDS011;41678;52.126;20.664;2022-10-31T08:38:50;67.93;;;21.40;;
55758;SDS011;41678;52.126;20.664;2022-10-31T08:44:10;58.40;;;20.10;;
55758;SDS011;41678;52.126;20.664;2022-10-31T08:49:30;59.55;;;20.35;;
55758;SDS011;41678;52.126;20.664;2022-10-31T08:54:50;74.25;;;25.15;;
55758;SDS011;41678;52.126;20.664;2022-10-31T09:00:36;68.05;;;23.50;;
55758;SDS011;41678;52.126;20.664;2022-10-31T09:06:03;62.80;;;23.00;;
55758;SDS011;41678;52.126;20.664;2022-10-31T09:11:29;51.17;;;21.35;;
55758;SDS011;41678;52.126;20.664;2022-10-31T09:17:28;49.38;;;19.13;;
55758;SDS011;41678;52.126;20.664;2022-10-31T09:23:09;55.63;;;22.15;;
55758;SDS011;41678;52.126;20.664;2022-10-31T09:28:31;55.60;;;20.98;;
55758;SDS011;41678;52.126;20.664;2022-10-31T09:33:56;63.47;;;20.67;;
55758;SDS011;41678;52.126;20.664;2022-10-31T09:39:22;54.05;;;20.35;;
55758;SDS011;41678;52.126;20.664;2022-10-31T09:50:42;62.67;;;21.35;;
55758;SDS011;41678;52.126;20.664;2022-10-31T09:56:25;58.53;;;21.00;;
55758;SDS011;41678;52.126;20.664;2022-10-31T10:18:40;66.60;;;21.98;;
55758;SDS011;41678;52.126;20.664;2022-10-31T10:24:10;67.63;;;24.77;;
55758;SDS011;41678;52.126;20.664;2022-10-31T10:35:44;67.25;;;23.73;;
55758;SDS011;41678;52.126;20.664;2022-10-31T10:41:22;74.27;;;26.53;;
55758;SDS011;41678;52.126;20.664;2022-10-31T10:46:43;64.72;;;26.67;;
55758;SDS011;41678;52.126;20.664;2022-10-31T10:57:55;78.15;;;27.67;;
55758;SDS011;41678;52.126;20.664;2022-10-31T11:03:19;76.32;;;30.50;;
55758;SDS011;41678;52.126;20.664;2022-10-31T11:08:39;78.63;;;30.75;;
55758;SDS011;41678;52.126;20.664;2022-10-31T11:14:12;75.97;;;30.58;;
55758;SDS011;41678;52.126;20.664;2022-10-31T11:19:34;67.80;;;29.00;;
55758;SDS011;41678;52.126;20.664;2022-10-31T11:24:53;68.97;;;29.50;;
55758;SDS011;41678;52.126;20.664;2022-10-31T11:30:13;68.75;;;28.95;;
55758;SDS011;41678;52.126;20.664;2022-10-31T11:35:33;73.70;;;29.77;;
55758;SDS011;41678;52.126;20.664;2022-10-31T11:41:12;72.05;;;29.90;;
55758;SDS011;41678;52.126;20.664;2022-10-31T11:46:35;67.03;;;30.45;;
55758;SDS011;41678;52.126;20.664;2022-10-31T11:52:04;63.08;;;29.55;;
55758;SDS011;41678;52.126;20.664;2022-10-31T11:57:41;72.88;;;30.25;;
55758;SDS011;41678;52.126;20.664;2022-10-31T12:08:39;68.55;;;31.17;;
55758;SDS011;41678;52.126;20.664;2022-10-31T12:14:04;64.63;;;28.33;;
55758;SDS011;41678;52.126;20.664;2022-10-31T12:19:42;66.30;;;28.30;;
55758;SDS011;41678;52.126;20.664;2022-10-31T12:25:39;67.28;;;28.73;;
55758;SDS011;41678;52.126;20.664;2022-10-31T13:00:02;73.57;;;31.75;;
55758;SDS011;41678;52.126;20.664;2022-10-31T13:05:33;71.57;;;31.95;;
55758;SDS011;41678;52.126;20.664;2022-10-31T13:16:22;66.45;;;29.25;;
55758;SDS011;41678;52.126;20.664;2022-10-31T13:27:51;66.97;;;29.83;;
55758;SDS011;41678;52.126;20.664;2022-10-31T13:38:54;69.72;;;30.05;;
55758;SDS011;41678;52.126;20.664;2022-10-31T13:44:24;72.63;;;29.95;;
55758;SDS011;41678;52.126;20.664;2022-10-31T13:49:46;68.68;;;30.60;;
55758;SDS011;41678;52.126;20.664;2022-10-31T13:55:07;83.13;;;30.77;;
55758;SDS011;41678;52.126;20.664;2022-10-31T14:12:07;70.07;;;30.33;;
55758;SDS011;41678;52.126;20.664;2022-10-31T14:17:36;70.97;;;30.20;;
55758;SDS011;41678;52.126;20.664;2022-10-31T14:50:50;89.68;;;29.83;;
55758;SDS011;41678;52.126;20.664;2022-10-31T14:56:12;75.85;;;28.52;;
55758;SDS011;41678;52.126;20.664;2022-10-31T15:01:38;85.95;;;29.83;;
55758;SDS011;41678;52.126;20.664;2022-10-31T15:07:04;83.40;;;27.58;;
55758;SDS011;41678;52.126;20.664;2022-10-31T15:12:31;85.43;;;28.73;;
55758;SDS011;41678;52.126;20.664;2022-10-31T15:17:56;80.82;;;28.98;;
55758;SDS011;41678;52.126;20.664;2022-10-31T15:23:21;88.32;;;32.80;;
55758;SDS011;41678;52.126;20.664;2022-10-31T15:28:44;89.07;;;30.52;;
55758;SDS011;41678;52.126;20.664;2022-10-31T15:34:06;79.45;;;29.30;;
55758;SDS011;41678;52.126;20.664;2022-10-31T15:39:35;114.57;;;42.75;;
55758;SDS011;41678;52.126;20.664;2022-10-31T15:45:02;75.75;;;27.25;;
55758;SDS011;41678;52.126;20.664;2022-10-31T15:50:37;68.63;;;25.80;;
55758;SDS011;41678;52.126;20.664;2022-10-31T15:56:00;77.22;;;25.50;;
55758;SDS011;41678;52.126;20.664;2022-10-31T16:12:44;69.30;;;25.90;;
55758;SDS011;41678;52.126;20.664;2022-10-31T16:18:04;74.75;;;26.00;;
55758;SDS011;41678;52.126;20.664;2022-10-31T16:23:25;59.90;;;23.92;;
55758;SDS011;41678;52.126;20.664;2022-10-31T16:28:56;78.18;;;25.80;;
55758;SDS011;41678;52.126;20.664;2022-10-31T16:34:19;70.13;;;23.98;;
55758;SDS011;41678;52.126;20.664;2022-10-31T16:39:41;58.03;;;20.88;;
55758;SDS011;41678;52.126;20.664;2022-10-31T16:45:01;56.47;;;20.60;;
55758;SDS011;41678;52.126;20.664;2022-10-31T16:50:24;51.88;;;17.83;;
55758;SDS011;41678;52.126;20.664;2022-10-31T16:55:55;46.55;;;17.55;;
55758;SDS011;41678;52.126;20.664;2022-10-31T17:01:17;42.30;;;17.80;;
55758;SDS011;41678;52.126;20.664;2022-10-31T17:06:37;51.40;;;17.88;;
55758;SDS011;41678;52.126;20.664;2022-10-31T17:11:57;52.78;;;19.75;;
55758;SDS011;41678;52.126;20.664;2022-10-31T17:17:17;52.65;;;19.95;;
55758;SDS011;41678;52.126;20.664;2022-10-31T17:22:37;55.53;;;20.65;;
55758;SDS011;41678;52.126;20.664;2022-10-31T17:27:57;55.55;;;20.45;;
55758;SDS011;41678;52.126;20.664;2022-10-31T17:33:17;53.03;;;20.90;;
55758;SDS011;41678;52.126;20.664;2022-10-31T17:38:37;62.75;;;22.25;;
55758;SDS011;41678;52.126;20.664;2022-10-31T17:43:58;50.67;;;21.13;;
55758;SDS011;41678;52.126;20.664;2022-10-31T17:49:18;54.20;;;18.33;;
55758;SDS011;41678;52.126;20.664;2022-10-31T17:54:38;53.97;;;19.95;;
55758;SDS011;41678;52.126;20.664;2022-10-31T17:59:58;57.55;;;20.92;;
55758;SDS011;41678;52.126;20.664;2022-10-31T18:05:18;46.83;;;18.25;;
55758;SDS011;41678;52.126;20.664;2022-10-31T18:10:38;52.35;;;18.90;;
55758;SDS011;41678;52.126;20.664;2022-10-31T18:15:57;63.53;;;22.70;;
55758;SDS011;41678;52.126;20.664;2022-10-31T18:21:17;50.78;;;19.63;;
55758;SDS011;41678;52.126;20.664;2022-10-31T18:26:37;59.58;;;20.40;;
55758;SDS011;41678;52.126;20.664;2022-10-31T18:31:57;48.20;;;19.80;;
55758;SDS011;41678;52.126;20.664;2022-10-31T18:37:17;52.90;;;20.10;;
55758;SDS011;41678;52.126;20.664;2022-10-31T18:42:36;45.05;;;18.60;;
55758;SDS011;41678;52.126;20.664;2022-10-31T18:47:56;53.28;;;20.20;;
55758;SDS011;41678;52.126;20.664;2022-10-31T18:53:16;51.35;;;20.15;;
55758;SDS011;41678;52.126;20.664;2022-10-31T18:58:35;52.88;;;21.20;;
55758;SDS011;41678;52.126;20.664;2022-10-31T19:03:56;47.33;;;19.73;;
55758;SDS011;41678;52.126;20.664;2022-10-31T19:09:17;64.65;;;19.50;;
55758;SDS011;41678;52.126;20.664;2022-10-31T19:14:36;51.35;;;20.60;;
55758;SDS011;41678;52.126;20.664;2022-10-31T19:19:56;45.17;;;19.63;;
55758;SDS011;41678;52.126;20.664;2022-10-31T19:25:16;56.47;;;21.00;;
55758;SDS011;41678;52.126;20.664;2022-10-31T19:30:35;56.30;;;23.95;;
55758;SDS011;41678;52.126;20.664;2022-10-31T19:35:59;71.10;;;26.52;;
55758;SDS011;41678;52.126;20.664;2022-10-31T19:41:26;93.82;;;33.22;;
55758;SDS011;41678;52.126;20.664;2022-10-31T19:46:47;65.50;;;23.10;;
55758;SDS011;41678;52.126;20.664;2022-10-31T19:52:07;65.63;;;25.67;;
55758;SDS011;41678;52.126;20.664;2022-10-31T19:57:26;82.53;;;28.90;;
55758;SDS011;41678;52.126;20.664;2022-10-31T20:02:46;56.05;;;24.25;;
55758;SDS011;41678;52.126;20.664;2022-10-31T20:08:05;70.10;;;22.77;;
55758;SDS011;41678;52.126;20.664;2022-10-31T20:13:26;62.20;;;20.20;;
55758;SDS011;41678;52.126;20.664;2022-10-31T20:18:47;85.53;;;19.20;;
55758;SDS011;41678;52.126;20.664;2022-10-31T20:24:08;61.13;;;19.35;;
55758;SDS011;41678;52.126;20.664;2022-10-31T20:29:29;61.42;;;21.35;;
55758;SDS011;41678;52.126;20.664;2022-10-31T20:34:49;52.53;;;19.83;;
55758;SDS011;41678;52.126;20.664;2022-10-31T20:40:08;59.60;;;19.55;;
55758;SDS011;41678;52.126;20.664;2022-10-31T20:45:29;51.03;;;20.07;;
55758;SDS011;41678;52.126;20.664;2022-10-31T20:51:07;40.67;;;17.00;;
55758;SDS011;41678;52.126;20.664;2022-10-31T20:56:30;55.03;;;18.77;;
55758;SDS011;41678;52.126;20.664;2022-10-31T21:01:50;48.55;;;19.02;;
55758;SDS011;41678;52.126;20.664;2022-10-31T21:07:09;46.42;;;16.67;;
55758;SDS011;41678;52.126;20.664;2022-10-31T21:12:29;36.90;;;17.08;;
55758;SDS011;41678;52.126;20.664;2022-10-31T21:17:49;37.30;;;15.75;;
55758;SDS011;41678;52.126;20.664;2022-10-31T21:23:09;33.58;;;15.88;;
55758;SDS011;41678;52.126;20.664;2022-10-31T21:28:29;30.67;;;13.90;;
55758;SDS011;41678;52.126;20.664;2022-10-31T21:33:49;27.00;;;12.85;;
55758;SDS011;41678;52.126;20.664;2022-10-31T21:39:08;27.85;;;11.98;;
55758;SDS011;41678;52.126;20.664;2022-10-31T21:44:28;32.13;;;11.57;;
55758;SDS011;41678;52.126;20.664;2022-10-31T21:49:51;24.13;;;11.63;;
55758;SDS011;41678;52.126;20.664;2022-10-31T22:00:30;21.35;;;10.90;;
55758;SDS011;41678;52.126;20.664;2022-10-31T22:05:49;31.88;;;12.75;;
55758;SDS011;41678;52.126;20.664;2022-10-31T22:11:10;26.90;;;11.98;;
55758;SDS011;41678;52.126;20.664;2022-10-31T22:16:34;69.70;;;13.45;;
55758;SDS011;41678;52.126;20.664;2022-10-31T22:21:55;39.13;;;14.40;;
55758;SDS011;41678;52.126;20.664;2022-10-31T22:27:14;44.22;;;11.98;;
55758;SDS011;41678;52.126;20.664;2022-10-31T22:32:33;47.50;;;13.15;;
55758;SDS011;41678;52.126;20.664;2022-10-31T22:37:53;44.92;;;12.82;;
55758;SDS011;41678;52.126;20.664;2022-10-31T22:43:13;33.25;;;11.77;;
55758;SDS011;41678;52.126;20.664;2022-10-31T22:48:36;35.58;;;11.98;;
55758;SDS011;41678;52.126;20.664;2022-10-31T22:53:58;46.03;;;12.07;;
55758;SDS011;41678;52.126;20.664;2022-10-31T22:59:18;68.78;;;11.80;;
55758;SDS011;41678;52.126;20.664;2022-10-31T23:04:37;39.92;;;12.43;;
55758;SDS011;41678;52.126;20.664;2022-10-31T23:09:57;44.35;;;11.02;;
55758;SDS011;41678;52.126;20.664;2022-10-31T23:15:17;55.25;;;11.38;;
55758;SDS011;41678;52.126;20.664;2022-10-31T23:20:37;23.77;;;9.82;;
55758;SDS011;41678;52.126;20.664;2022-10-31T23:25:56;47.47;;;11.55;;
55758;SDS011;41678;52.126;20.664;2022-10-31T23:31:35;51.92;;;10.77;;
55758;SDS011;41678;52.126;20.664;2022-10-31T23:36:54;28.15;;;11.68;;
55758;SDS011;41678;52.126;20.664;2022-10-31T23:42:14;29.40;;;10.68;;
55758;SDS011;41678;52.126;20.664;2022-10-31T23:47:34;47.72;;;11.48;;
55758;SDS011;41678;52.126;20.664;2022-10-31T23:52:54;56.75;;;10.45;;
55758;SDS011;41678;52.126;20.664;2022-10-31T23:58:13;36.28;;;9.88;;
